Time;durP1;ratioP1;P1;durP2;ratioP2;P2;SDS_P1;SDS_P2;PMS_P1;PMS_P2;Temp;Humidity;BMP_temperature;BMP_pressure;BME280_temperature;BME280_humidity;BME280_pressure;Samples;Min_cycle;Max_cycle;Signal;HPM_P1;HPM_P2
2023/06/15 00:01:15;;;;;;;;;;;;;;;26.12;38.14;100568.72;5086430;28;1099;-17
2023/06/15 00:03:43;;;;;;;;;;;;;;;26.16;38.39;100572.72;5075168;28;1142;-17
2023/06/15 00:06:08;;;;;;;;;;;;;;;26.33;37.98;100574.47;5079869;28;1973;-17
2023/06/15 00:08:34;;;;;;;;;;;;;;;26.15;38.18;100575.59;5078368;28;1031;-17
2023/06/15 00:11:00;;;;;;;;;;;;;;;25.98;38.48;100566.78;5087842;28;1094;-17
2023/06/15 00:13:25;;;;;;;;;;;;;;;26.20;37.86;100567.81;5078422;28;1074;-17
2023/06/15 00:15:51;;;;;;;;;;;;;;;26.23;37.60;100569.31;5087434;28;1190;-17
2023/06/15 00:18:17;;;;;;;;;;;;;;;25.95;38.60;100557.22;5078730;28;1026;-17
2023/06/15 00:20:44;;;;;;;;;;;;;;;25.91;38.67;100562.13;5086387;28;1082;-16
2023/06/15 00:23:09;;;;;;;;;;;;;;;26.16;38.18;100558.41;5083135;28;1497;-18
2023/06/15 00:25:35;;;;;;;;;;;;;;;26.27;38.03;100558.00;5086299;28;1905;-17
2023/06/15 00:28:01;;;;;;;;;;;;;;;26.26;38.02;100563.53;5089981;28;1062;-17
2023/06/15 00:30:26;;;;;;;;;;;;;;;26.21;38.09;100558.69;5080495;28;1118;-17
2023/06/15 00:32:52;;;;;;;;;;;;;;;26.36;37.67;100558.78;5082255;28;1027;-17
2023/06/15 00:35:17;;;;;;;;;;;;;;;26.08;38.34;100555.78;5077982;28;1138;-17
2023/06/15 00:37:43;;;;;;;;;;;;;;;26.09;38.09;100550.19;5048201;28;1079;-17
2023/06/15 00:40:09;;;;;;;;;;;;;;;26.21;38.33;100556.00;5096447;28;1202;-17
2023/06/15 00:42:35;;;;;;;;;;;;;;;26.12;38.36;100552.56;5074789;28;1122;-17
2023/06/15 00:45:04;;;;;;;;;;;;;;;26.32;37.66;100549.34;5085432;28;1906;-17
2023/06/15 00:47:30;;;;;;;;;;;;;;;26.37;37.30;100549.69;5061310;28;1077;-17
2023/06/15 00:49:56;;;;;;;;;;;;;;;26.23;37.45;100551.28;5058020;28;1196;-18
2023/06/15 00:52:22;;;;;;;;;;;;;;;25.99;38.68;100545.06;5075304;28;1062;-16
2023/06/15 00:54:48;;;;;;;;;;;;;;;26.10;37.99;100543.81;5082071;28;1110;-17
2023/06/15 00:57:14;;;;;;;;;;;;;;;26.06;38.65;100545.16;5082156;28;1110;-16
2023/06/15 00:59:40;;;;;;;;;;;;;;;26.13;38.35;100547.97;5068419;28;1092;-17
2023/06/15 01:02:06;;;;;;;;;;;;;;;26.32;37.55;100543.97;5079807;28;1105;-17
2023/06/15 01:04:31;;;;;;;;;;;;;;;26.42;37.40;100543.72;5067886;28;1134;-18
2023/06/15 01:07:01;;;;;;;;;;;;;;;26.16;37.81;100548.47;5073911;28;1911;-17
2023/06/15 01:09:28;;;;;;;;;;;;;;;26.12;38.16;100555.25;5078818;28;1078;-17
2023/06/15 01:11:55;;;;;;;;;;;;;;;26.29;37.58;100545.16;5064468;28;1173;-17
2023/06/15 01:14:21;;;;;;;;;;;;;;;26.43;37.62;100540.00;5085823;28;1133;-18
2023/06/15 01:16:52;;;;;;;;;;;;;;;26.39;37.34;100544.09;5078378;28;1024;-17
2023/06/15 01:19:57;;;;;;;;;;;;;;;26.23;37.61;100543.19;5065554;28;1348;-18
2023/06/15 01:22:45;;;;;;;;;;;;;;;26.16;38.33;100555.72;5072003;28;1039;-17
2023/06/15 01:25:26;;;;;;;;;;;;;;;26.26;37.87;100556.31;5100222;28;1961;-18
2023/06/15 01:27:59;;;;;;;;;;;;;;;26.31;37.70;100549.53;5065358;28;1101;-17
2023/06/15 01:30:26;;;;;;;;;;;;;;;26.15;38.16;100545.97;5061742;28;1308;-18
2023/06/15 01:32:53;;;;;;;;;;;;;;;26.14;38.08;100544.28;5068030;28;1180;-18
2023/06/15 01:35:18;;;;;;;;;;;;;;;26.15;37.84;100538.72;5099968;28;1018;-17
2023/06/15 01:37:44;;;;;;;;;;;;;;;26.25;37.81;100529.53;5085277;28;1127;-17
2023/06/15 01:40:09;;;;;;;;;;;;;;;26.02;38.64;100533.09;5070806;28;1034;-17
2023/06/15 01:42:35;;;;;;;;;;;;;;;25.99;38.44;100530.75;5081469;28;1079;-16
2023/06/15 01:45:00;;;;;;;;;;;;;;;26.15;37.74;100527.94;5071366;28;1972;-18
2023/06/15 01:47:26;;;;;;;;;;;;;;;26.22;37.42;100530.75;5080353;28;1066;-17
2023/06/15 01:49:52;;;;;;;;;;;;;;;26.47;37.57;100535.94;5071192;28;1082;-17
2023/06/15 01:52:17;;;;;;;;;;;;;;;26.17;38.15;100531.25;5078513;28;1011;-17
2023/06/15 01:54:43;;;;;;;;;;;;;;;25.97;38.12;100530.94;5078903;28;1150;-18
2023/06/15 01:57:09;;;;;;;;;;;;;;;26.28;37.81;100531.84;5082631;28;1080;-17
2023/06/15 01:59:35;;;;;;;;;;;;;;;26.33;37.61;100525.94;5060917;28;1119;-17
2023/06/15 02:02:00;;;;;;;;;;;;;;;26.14;38.19;100531.63;5060796;28;1186;-18
2023/06/15 02:04:26;;;;;;;;;;;;;;;26.26;38.30;100533.88;5070236;28;1079;-17
2023/06/15 02:06:57;;;;;;;;;;;;;;;26.26;37.59;100526.63;5065914;28;1922;-17
2023/06/15 02:09:23;;;;;;;;;;;;;;;26.28;37.89;100531.84;5080470;28;1289;-17
2023/06/15 02:11:49;;;;;;;;;;;;;;;26.16;37.63;100526.06;5063097;28;1070;-17
2023/06/15 02:14:17;;;;;;;;;;;;;;;25.99;38.06;100528.06;5060739;28;1226;-16
2023/06/15 02:16:43;;;;;;;;;;;;;;;26.03;38.14;100532.06;5064687;28;1301;-17
2023/06/15 02:19:09;;;;;;;;;;;;;;;26.23;37.73;100534.25;5091301;28;1097;-18
2023/06/15 02:21:36;;;;;;;;;;;;;;;26.20;37.84;100545.41;5081144;28;952;-18
2023/06/15 02:24:02;;;;;;;;;;;;;;;26.17;38.11;100555.53;5060501;28;1202;-17
2023/06/15 02:26:27;;;;;;;;;;;;;;;25.88;38.59;100559.81;5076711;28;1973;-17
2023/06/15 02:28:53;;;;;;;;;;;;;;;26.19;37.96;100559.91;5080296;28;1058;-17
2023/06/15 02:31:18;;;;;;;;;;;;;;;26.39;37.78;100553.00;5084470;28;1010;-17
2023/06/15 02:33:44;;;;;;;;;;;;;;;25.91;38.62;100553.19;5088014;28;1046;-17
2023/06/15 02:36:19;;;;;;;;;;;;;;;25.82;38.95;100557.84;5064542;28;1138;-17
2023/06/15 02:38:46;;;;;;;;;;;;;;;26.07;37.95;100565.75;5068139;28;1301;-17
2023/06/15 02:41:11;;;;;;;;;;;;;;;26.21;38.13;100560.56;5060273;28;1332;-18
2023/06/15 02:43:37;;;;;;;;;;;;;;;26.21;38.30;100556.00;5071867;28;1127;-17
2023/06/15 02:46:03;;;;;;;;;;;;;;;25.88;38.78;100554.41;5066378;28;1975;-17
2023/06/15 02:48:29;;;;;;;;;;;;;;;25.96;38.23;100552.69;5080333;28;1164;-17
2023/06/15 02:50:55;;;;;;;;;;;;;;;26.24;37.64;100544.84;5066078;28;1501;-17
2023/06/15 02:53:23;;;;;;;;;;;;;;;26.17;38.36;100546.63;5079746;28;1403;-17
2023/06/15 02:55:52;;;;;;;;;;;;;;;25.91;39.08;100553.19;5073580;28;1210;-17
2023/06/15 02:58:24;;;;;;;;;;;;;;;25.97;38.44;100554.34;5072557;28;1154;-17
2023/06/15 03:01:11;;;;;;;;;;;;;;;26.18;37.90;100556.38;5069023;28;1247;-17
2023/06/15 03:03:44;;;;;;;;;;;;;;;26.17;38.15;100558.22;5066206;28;1230;-17
2023/06/15 03:06:10;;;;;;;;;;;;;;;25.94;38.78;100554.72;5079181;28;1914;-17
2023/06/15 03:08:38;;;;;;;;;;;;;;;25.95;38.87;100551.00;5069912;28;1434;-17
2023/06/15 03:11:15;;;;;;;;;;;;;;;26.20;38.40;100550.78;5071482;28;1138;-17
2023/06/15 03:13:41;;;;;;;;;;;;;;;26.34;38.07;100550.03;5060400;28;1135;-17
2023/06/15 03:16:07;;;;;;;;;;;;;;;26.07;38.59;100557.66;5059335;28;1225;-17
2023/06/15 03:18:33;;;;;;;;;;;;;;;26.24;38.38;100555.63;5064902;28;1159;-18
2023/06/15 03:20:59;;;;;;;;;;;;;;;26.23;37.73;100555.81;5066848;28;1166;-17
2023/06/15 03:23:25;;;;;;;;;;;;;;;25.41;44.06;100557.03;5062211;28;1361;-15
2023/06/15 03:25:51;;;;;;;;;;;;;;;25.08;46.76;100559.84;5059406;28;1906;-15
2023/06/15 03:28:24;;;;;;;;;;;;;;;25.00;46.93;100565.25;5079229;28;1279;-16
2023/06/15 03:30:53;;;;;;;;;;;;;;;24.91;48.18;100569.81;5065519;28;1464;-15
2023/06/15 03:33:21;;;;;;;;;;;;;;;24.67;48.54;100569.66;5074403;28;1224;-16
2023/06/15 03:35:48;;;;;;;;;;;;;;;24.84;47.54;100566.94;5072900;28;1233;-16
2023/06/15 03:38:15;;;;;;;;;;;;;;;24.92;48.37;100569.66;5079349;28;1113;-16
2023/06/15 03:40:42;;;;;;;;;;;;;;;24.83;48.65;100568.81;5064420;28;1147;-15
2023/06/15 03:43:11;;;;;;;;;;;;;;;24.67;49.48;100576.91;5059124;28;1130;-16
2023/06/15 03:45:39;;;;;;;;;;;;;;;24.80;48.06;100573.69;5064192;28;1910;-16
2023/06/15 03:48:05;;;;;;;;;;;;;;;24.85;48.98;100575.88;5079059;28;1237;-16
2023/06/15 03:50:32;;;;;;;;;;;;;;;24.92;48.62;100577.72;5079113;28;1170;-15
2023/06/15 03:52:58;;;;;;;;;;;;;;;25.71;44.76;100577.91;5074965;28;1576;-18
2023/06/15 03:55:25;;;;;;;;;;;;;;;24.85;41.06;100575.88;5078257;28;1684;-18
2023/06/15 03:57:50;;;;;;;;;;;;;;;24.91;48.57;100580.59;5068925;28;1489;-18
2023/06/15 04:00:16;;;;;;;;;;;;;;;24.57;50.07;100580.63;5076845;28;1472;-18
2023/06/15 04:02:46;;;;;;;;;;;;;;;25.01;48.97;100583.06;5072473;28;1337;-19
2023/06/15 04:05:13;;;;;;;;;;;;;;;25.24;48.46;100585.84;5065355;28;1909;-18
2023/06/15 04:07:39;;;;;;;;;;;;;;;24.58;50.54;100581.47;5075499;28;1324;-19
2023/06/15 04:10:08;;;;;;;;;;;;;;;24.94;49.11;100589.16;5075792;28;1604;-18
2023/06/15 04:12:33;;;;;;;;;;;;;;;25.05;49.59;100592.50;5070315;28;1218;-17
2023/06/15 04:14:59;;;;;;;;;;;;;;;24.79;50.54;100582.78;5066345;28;1211;-16
2023/06/15 04:17:25;;;;;;;;;;;;;;;24.88;50.05;100587.13;5068952;28;1663;-17
2023/06/15 04:19:51;;;;;;;;;;;;;;;25.54;48.24;100587.94;5064218;28;1341;-18
2023/06/15 04:22:16;;;;;;;;;;;;;;;25.48;48.35;100591.31;5072307;28;1218;-17
2023/06/15 04:24:42;;;;;;;;;;;;;;;25.31;48.47;100592.25;5069023;28;1344;-17
2023/06/15 04:27:12;;;;;;;;;;;;;;;25.49;49.20;100596.53;5090840;28;1988;-17
2023/06/15 04:29:45;;;;;;;;;;;;;;;25.55;48.75;100601.22;5071985;28;1442;-17
2023/06/15 04:32:12;;;;;;;;;;;;;;;25.17;50.19;100598.34;5070738;28;1495;-17
2023/06/15 04:34:39;;;;;;;;;;;;;;;25.59;48.22;100599.00;5069728;28;1783;-16
2023/06/15 04:37:06;;;;;;;;;;;;;;;25.39;48.54;100602.13;5074008;28;1384;-17
2023/06/15 04:39:34;;;;;;;;;;;;;;;25.73;48.29;100612.75;5070124;28;1509;-16
2023/06/15 04:42:02;;;;;;;;;;;;;;;25.92;48.25;100619.56;5068111;28;1488;-16
2023/06/15 04:44:29;;;;;;;;;;;;;;;25.96;47.33;100611.97;5067863;28;1781;-15
2023/06/15 04:46:55;;;;;;;;;;;;;;;25.97;46.87;100619.88;5065887;28;1905;-16
2023/06/15 04:49:20;;;;;;;;;;;;;;;26.35;45.87;100612.88;5064885;28;1374;-17
2023/06/15 04:51:48;;;;;;;;;;;;;;;26.52;45.12;100622.53;5082192;28;1326;-17
2023/06/15 04:54:14;;;;;;;;;;;;;;;26.67;44.54;100620.88;5073632;28;2142;-17
2023/06/15 04:56:40;;;;;;;;;;;;;;;26.69;44.12;100624.25;5061771;28;1360;-16
2023/06/15 04:59:07;;;;;;;;;;;;;;;26.66;44.38;100622.72;5070280;28;1159;-17
2023/06/15 05:01:33;;;;;;;;;;;;;;;26.62;44.78;100616.88;5081187;28;1271;-17
2023/06/15 05:03:59;;;;;;;;;;;;;;;27.08;43.09;100622.34;5069125;28;1171;-16
2023/06/15 05:06:26;;;;;;;;;;;;;;;27.29;41.70;100628.88;5074700;28;1906;-15
2023/06/15 05:08:52;;;;;;;;;;;;;;;27.30;42.31;100631.38;5063533;28;1162;-17
2023/06/15 05:11:17;;;;;;;;;;;;;;;27.33;41.48;100630.16;5055753;28;1479;-17
2023/06/15 05:13:44;;;;;;;;;;;;;;;27.11;42.69;100627.41;5071196;28;1620;-17
2023/06/15 05:16:10;;;;;;;;;;;;;;;26.98;42.77;100633.38;5059387;28;1106;-17
2023/06/15 05:18:38;;;;;;;;;;;;;;;26.90;42.84;100635.16;5065434;28;1548;-17
2023/06/15 05:21:04;;;;;;;;;;;;;;;26.80;43.12;100634.59;5059096;28;1052;-17
2023/06/15 05:23:34;;;;;;;;;;;;;;;27.19;41.43;100632.69;5075501;28;1606;-18
2023/06/15 05:25:59;;;;;;;;;;;;;;;27.15;42.32;100628.69;5074813;28;1960;-17
2023/06/15 05:28:25;;;;;;;;;;;;;;;27.22;41.98;100635.03;5069709;28;1783;-18
2023/06/15 05:30:51;;;;;;;;;;;;;;;27.08;42.04;100638.53;5074989;28;1146;-19
2023/06/15 05:33:17;;;;;;;;;;;;;;;27.09;42.15;100641.06;5073045;28;1190;-18
2023/06/15 05:35:43;;;;;;;;;;;;;;;27.37;41.79;100642.28;5064384;28;1371;-18
2023/06/15 05:38:10;;;;;;;;;;;;;;;27.10;42.25;100641.91;5072123;28;1512;-16
2023/06/15 05:40:38;;;;;;;;;;;;;;;27.06;42.63;100640.59;5065111;28;1441;-17
2023/06/15 05:43:04;;;;;;;;;;;;;;;26.72;42.97;100643.59;5066300;28;1303;-17
2023/06/15 05:45:30;;;;;;;;;;;;;;;26.95;42.74;100647.25;5065762;28;1967;-17
2023/06/15 05:47:59;;;;;;;;;;;;;;;26.84;42.96;100649.38;5065620;28;1487;-17
2023/06/15 05:50:25;;;;;;;;;;;;;;;26.86;42.63;100641.13;5064857;28;1012;-17
2023/06/15 05:52:50;;;;;;;;;;;;;;;27.00;42.84;100640.28;5067730;28;1396;-18
2023/06/15 05:55:16;;;;;;;;;;;;;;;26.95;42.93;100644.56;5072279;28;1291;-18
2023/06/15 05:57:42;;;;;;;;;;;;;;;26.66;44.75;100644.31;5074395;28;1441;-19
2023/06/15 06:00:09;;;;;;;;;;;;;;;26.50;46.75;100643.44;5066571;28;1786;-18
2023/06/15 06:02:41;;;;;;;;;;;;;;;26.63;47.81;100641.97;5072702;28;1402;-16
2023/06/15 06:05:09;;;;;;;;;;;;;;;26.71;45.57;100641.09;5075261;28;1901;-17
2023/06/15 06:07:34;;;;;;;;;;;;;;;26.47;42.22;100642.97;5076829;28;1219;-17
2023/06/15 06:10:00;;;;;;;;;;;;;;;26.19;40.87;100640.78;5073285;28;1154;-17
2023/06/15 06:12:27;;;;;;;;;;;;;;;25.76;41.70;100636.66;5067440;28;1294;-18
2023/06/15 06:14:52;;;;;;;;;;;;;;;26.50;43.76;100635.38;5075130;28;1272;-17
2023/06/15 06:17:18;;;;;;;;;;;;;;;26.85;46.07;100637.56;5074857;28;1159;-19
2023/06/15 06:19:43;;;;;;;;;;;;;;;26.90;46.96;100645.97;5075174;28;1163;-20
2023/06/15 06:22:09;;;;;;;;;;;;;;;27.13;47.09;100642.38;5083084;28;1024;-19
2023/06/15 06:24:35;;;;;;;;;;;;;;;27.06;47.25;100640.59;5074461;28;1215;-19
2023/06/15 06:27:03;;;;;;;;;;;;;;;27.15;47.26;100647.59;5065483;28;1973;-20
2023/06/15 06:29:29;;;;;;;;;;;;;;;27.22;46.20;100642.28;5090201;28;1331;-19
2023/06/15 06:31:55;;;;;;;;;;;;;;;27.49;45.83;100643.47;5083580;28;1128;-18
2023/06/15 06:34:20;;;;;;;;;;;;;;;27.75;45.72;100647.56;5084951;28;1199;-18
2023/06/15 06:36:46;;;;;;;;;;;;;;;27.30;47.09;100638.63;5094166;28;1090;-16
2023/06/15 06:39:11;;;;;;;;;;;;;;;27.39;46.36;100648.34;5078604;28;1155;-17
2023/06/15 06:41:37;;;;;;;;;;;;;;;27.48;46.72;100649.91;5062996;28;1175;-17
2023/06/15 06:44:02;;;;;;;;;;;;;;;27.52;45.15;100647.66;5078895;28;1185;-17
2023/06/15 06:46:28;;;;;;;;;;;;;;;27.59;45.36;100640.47;5088267;28;1964;-19
2023/06/15 06:48:54;;;;;;;;;;;;;;;27.47;45.88;100648.22;5091629;28;916;-19
2023/06/15 06:51:19;;;;;;;;;;;;;;;27.56;44.52;100634.63;5088200;28;1528;-19
2023/06/15 06:53:45;;;;;;;;;;;;;;;27.60;44.79;100638.59;5086452;28;1066;-19
2023/06/15 06:56:10;;;;;;;;;;;;;;;27.60;45.57;100646.72;5080935;28;1265;-18
2023/06/15 06:58:36;;;;;;;;;;;;;;;27.66;45.50;100645.13;5096092;28;1050;-18
2023/06/15 07:01:02;;;;;;;;;;;;;;;27.30;46.69;100641.34;5088341;28;1032;-19
2023/06/15 07:03:28;;;;;;;;;;;;;;;27.02;47.67;100643.69;5079780;28;1028;-19
2023/06/15 07:05:54;;;;;;;;;;;;;;;27.23;46.57;100635.84;5089071;28;1909;-19
2023/06/15 07:08:20;;;;;;;;;;;;;;;27.36;46.65;100640.63;5072021;28;1387;-19
2023/06/15 07:10:46;;;;;;;;;;;;;;;27.85;45.41;100643.72;5094102;28;868;-18
2023/06/15 07:13:11;;;;;;;;;;;;;;;28.01;44.59;100652.63;5084071;28;1131;-16
2023/06/15 07:15:37;;;;;;;;;;;;;;;27.51;45.15;100656.78;5082494;28;1075;-16
2023/06/15 07:18:02;;;;;;;;;;;;;;;27.74;44.73;100643.16;5086340;28;1155;-16
2023/06/15 07:20:28;;;;;;;;;;;;;;;27.82;44.07;100644.09;5069032;28;1364;-17
2023/06/15 07:22:53;;;;;;;;;;;;;;;28.06;43.67;100644.78;5081663;28;1031;-19
2023/06/15 07:25:19;;;;;;;;;;;;;;;27.93;45.42;100648.16;5090825;28;2000;-17
2023/06/15 07:27:44;;;;;;;;;;;;;;;28.04;44.27;100644.13;5077817;28;1070;-17
2023/06/15 07:30:10;;;;;;;;;;;;;;;28.34;43.50;100641.31;5085599;28;1110;-18
2023/06/15 07:32:36;;;;;;;;;;;;;;;28.52;42.21;100648.13;5092098;28;903;-17
2023/06/15 07:35:01;;;;;;;;;;;;;;;28.26;43.28;100642.25;5089838;28;1376;-16
2023/06/15 07:37:27;;;;;;;;;;;;;;;27.94;43.17;100634.47;5081550;28;933;-15
2023/06/15 07:39:53;;;;;;;;;;;;;;;28.11;43.09;100645.84;5092050;28;1225;-17
2023/06/15 07:42:18;;;;;;;;;;;;;;;28.34;41.87;100646.75;5093093;28;1043;-17
2023/06/15 07:44:44;;;;;;;;;;;;;;;28.52;41.85;100656.25;5094024;28;1166;-16
2023/06/15 07:47:10;;;;;;;;;;;;;;;28.69;41.32;100648.69;5091699;28;1964;-18
2023/06/15 07:49:36;;;;;;;;;;;;;;;28.47;41.32;100651.44;5088175;28;1159;-19
2023/06/15 07:52:01;;;;;;;;;;;;;;;28.33;41.68;100648.59;5083325;28;1066;-18
2023/06/15 07:54:27;;;;;;;;;;;;;;;28.41;41.88;100655.72;5082464;28;970;-16
2023/06/15 07:56:52;;;;;;;;;;;;;;;28.90;40.67;100646.94;5063864;28;1194;-19
2023/06/15 07:59:18;;;;;;;;;;;;;;;28.42;41.60;100648.47;5082247;28;1165;-18
2023/06/15 08:01:43;;;;;;;;;;;;;;;28.70;40.55;100650.34;5091977;28;1181;-19
2023/06/15 08:04:09;;;;;;;;;;;;;;;28.61;40.41;100657.81;5067341;28;1149;-18
2023/06/15 08:06:35;;;;;;;;;;;;;;;28.76;40.80;100648.75;5090782;28;1969;-19
2023/06/15 08:09:01;;;;;;;;;;;;;;;28.89;40.16;100650.72;5090222;28;1297;-20
2023/06/15 08:11:27;;;;;;;;;;;;;;;28.61;40.56;100660.50;5095700;28;1060;-19
2023/06/15 08:13:52;;;;;;;;;;;;;;;28.95;40.29;100658.88;5090669;28;1092;-19
2023/06/15 08:16:18;;;;;;;;;;;;;;;28.59;39.93;100654.44;5080041;28;1182;-17
2023/06/15 08:18:43;;;;;;;;;;;;;;;28.62;41.50;100654.06;5079459;28;1139;-17
2023/06/15 08:21:09;;;;;;;;;;;;;;;28.44;41.14;100649.97;5089173;28;1118;-18
2023/06/15 08:23:35;;;;;;;;;;;;;;;28.57;40.78;100661.91;5083420;28;1040;-20
2023/06/15 08:26:00;;;;;;;;;;;;;;;28.22;42.09;100660.75;5080457;28;1987;-18
2023/06/15 08:28:26;;;;;;;;;;;;;;;28.82;39.91;100645.25;5085774;28;1328;-18
2023/06/15 08:30:52;;;;;;;;;;;;;;;28.71;40.47;100663.69;5063241;28;1188;-19
2023/06/15 08:33:18;;;;;;;;;;;;;;;28.78;40.51;100650.22;5089547;28;1093;-20
2023/06/15 08:35:44;;;;;;;;;;;;;;;28.65;40.54;100650.09;5085518;28;945;-19
2023/06/15 08:38:09;;;;;;;;;;;;;;;28.44;40.88;100652.66;5085665;28;1295;-19
2023/06/15 08:40:35;;;;;;;;;;;;;;;28.16;41.64;100652.56;5092149;28;1091;-19
2023/06/15 08:43:00;;;;;;;;;;;;;;;28.40;41.08;100654.06;5082595;28;1171;-19
2023/06/15 08:45:26;;;;;;;;;;;;;;;28.61;40.49;100652.38;5068227;28;1906;-19
2023/06/15 08:47:52;;;;;;;;;;;;;;;28.54;40.43;100649.63;5073905;28;1004;-20
2023/06/15 08:50:17;;;;;;;;;;;;;;;28.36;40.80;100644.69;5066186;28;1250;-19
2023/06/15 08:52:43;;;;;;;;;;;;;;;28.64;39.98;100646.59;5082508;28;1312;-18
2023/06/15 08:55:09;;;;;;;;;;;;;;;28.51;40.71;100643.75;5087031;28;983;-19
2023/06/15 08:57:35;;;;;;;;;;;;;;;28.85;40.41;100647.56;5061719;28;1056;-19
2023/06/15 09:00:09;;;;;;;;;;;;;;;27.88;41.31;100551.41;5079875;28;946;-19
2023/06/15 09:02:36;;;;;;;;;;;;;;;28.56;41.08;100652.94;5088870;28;1201;-19
2023/06/15 09:05:02;;;;;;;;;;;;;;;28.52;41.04;100648.13;5070972;28;1289;-20
2023/06/15 09:07:29;;;;;;;;;;;;;;;28.31;41.29;100649.81;5091649;28;1967;-19
2023/06/15 09:10:21;;;;;;;;;;;;;;;28.43;40.73;100663.66;5095796;28;1106;-20
2023/06/15 09:12:46;;;;;;;;;;;;;;;28.36;41.57;100641.97;5082308;28;1737;-19
2023/06/15 09:15:16;;;;;;;;;;;;;;;27.99;42.11;100647.41;5095598;28;1089;-19
2023/06/15 09:17:41;;;;;;;;;;;;;;;28.51;41.26;100649.19;5083741;28;1134;-19
2023/06/15 09:20:08;;;;;;;;;;;;;;;28.62;40.23;100650.50;5070496;28;1189;-19
2023/06/15 09:22:40;;;;;;;;;;;;;;;28.70;40.73;100645.78;5094589;28;1126;-20
2023/06/15 09:25:10;;;;;;;;;;;;;;;28.92;40.29;100643.03;5082026;28;1090;-19
2023/06/15 09:27:36;;;;;;;;;;;;;;;28.59;41.89;100644.44;5095810;28;1120;-20
2023/06/15 09:30:02;;;;;;;;;;;;;;;29.11;40.82;100645.25;5082250;28;1162;-20
2023/06/15 09:32:28;;;;;;;;;;;;;;;28.76;41.14;100638.72;5077042;28;1190;-19
2023/06/15 09:35:00;;;;;;;;;;;;;;;28.51;40.57;100646.47;5088577;28;1045;-20
2023/06/15 09:37:26;;;;;;;;;;;;;;;29.07;41.26;100642.09;5092080;28;1126;-21
2023/06/15 09:39:52;;;;;;;;;;;;;;;28.88;40.15;100633.63;5086516;28;1064;-19
2023/06/15 09:42:18;;;;;;;;;;;;;;;28.43;40.25;100639.31;5068089;28;1335;-21
2023/06/15 09:44:43;;;;;;;;;;;;;;;28.57;41.10;100648.38;5091654;28;1261;-18
2023/06/15 09:47:15;;;;;;;;;;;;;;;28.87;41.23;100650.06;5072472;28;1981;-19
2023/06/15 09:49:43;;;;;;;;;;;;;;;28.82;41.37;100640.69;5092630;28;987;-19
2023/06/15 09:52:11;;;;;;;;;;;;;;;27.91;43.51;100642.13;5089852;28;1142;-19
2023/06/15 09:54:37;;;;;;;;;;;;;;;28.30;42.46;100638.13;5087030;28;1003;-16
2023/06/15 09:57:02;;;;;;;;;;;;;;;28.99;41.30;100634.13;5073024;28;1182;-16
2023/06/15 09:59:28;;;;;;;;;;;;;;;28.86;41.07;100635.72;5101274;28;842;-18
2023/06/15 10:01:56;;;;;;;;;;;;;;;28.82;41.24;100639.81;5091805;28;1081;-16
2023/06/15 10:04:25;;;;;;;;;;;;;;;29.34;40.35;100634.94;5098349;28;1063;-17
2023/06/15 10:06:53;;;;;;;;;;;;;;;29.14;41.41;100644.84;5080212;28;1909;-17
2023/06/15 10:09:23;;;;;;;;;;;;;;;29.37;39.99;100635.59;5082514;28;1170;-17
2023/06/15 10:11:49;;;;;;;;;;;;;;;29.11;39.98;100637.13;5061922;28;905;-17
2023/06/15 10:14:16;;;;;;;;;;;;;;;28.83;40.39;100639.63;5095349;28;1182;-19
2023/06/15 10:16:41;;;;;;;;;;;;;;;29.16;40.87;100629.25;5060565;28;1092;-19
2023/06/15 10:19:10;;;;;;;;;;;;;;;28.67;42.12;100637.22;5088526;28;1139;-18
2023/06/15 10:21:36;;;;;;;;;;;;;;;28.57;41.47;100638.41;5076704;28;1139;-18
2023/06/15 10:24:04;;;;;;;;;;;;;;;29.08;40.40;100633.78;5060486;28;914;-18
2023/06/15 10:26:29;;;;;;;;;;;;;;;28.76;41.18;100635.22;5095570;28;1965;-18
2023/06/15 10:28:59;;;;;;;;;;;;;;;28.51;41.17;100631.03;5098089;28;1046;-19
2023/06/15 10:31:30;;;;;;;;;;;;;;;28.29;42.18;100635.63;5084869;28;1162;-19
2023/06/15 10:34:00;;;;;;;;;;;;;;;28.70;40.69;100634.13;5097804;28;1003;-19
2023/06/15 10:36:29;;;;;;;;;;;;;;;28.81;40.76;100625.44;5066225;28;1119;-19
2023/06/15 10:38:58;;;;;;;;;;;;;;;28.67;40.80;100623.69;5079579;28;1125;-19
2023/06/15 10:41:23;;;;;;;;;;;;;;;28.62;40.87;100634.25;5090372;28;1221;-17
2023/06/15 10:43:58;;;;;;;;;;;;;;;28.43;40.82;100631.19;5079312;28;1047;-18
2023/06/15 10:46:28;;;;;;;;;;;;;;;28.01;38.95;100626.41;5089114;28;1969;-18
2023/06/15 10:48:54;;;;;;;;;;;;;;;28.62;39.31;100621.56;5090379;28;925;-21
2023/06/15 10:51:21;;;;;;;;;;;;;;;28.41;39.82;100620.56;5078094;28;1070;-18
2023/06/15 10:53:46;;;;;;;;;;;;;;;28.41;40.04;100625.97;5082960;28;1092;-17
2023/06/15 10:56:13;;;;;;;;;;;;;;;28.43;40.65;100614.94;5097827;28;1042;-18
2023/06/15 10:58:59;;;;;;;;;;;;;;;28.01;41.43;100610.19;5079012;28;1079;-18
2023/06/15 11:01:25;;;;;;;;;;;;;;;28.38;40.62;100615.53;5086342;28;1690;-20
2023/06/15 11:03:51;;;;;;;;;;;;;;;28.19;41.07;100609.75;5082734;28;1437;-18
2023/06/15 11:06:17;;;;;;;;;;;;;;;28.14;40.94;100606.78;5080801;28;1981;-19
2023/06/15 11:08:47;;;;;;;;;;;;;;;28.26;40.70;100611.69;5082939;28;1446;-18
2023/06/15 11:11:13;;;;;;;;;;;;;;;28.20;40.85;100610.56;5086236;28;1199;-18
2023/06/15 11:14:00;;;;;;;;;;;;;;;28.33;40.86;100608.03;5089303;28;1169;-18
2023/06/15 11:16:27;;;;;;;;;;;;;;;28.76;39.57;100608.97;5086507;28;1273;-18
2023/06/15 11:18:58;;;;;;;;;;;;;;;28.69;38.89;100598.13;5083095;28;1351;-18
2023/06/15 11:21:24;;;;;;;;;;;;;;;28.65;39.43;100602.22;5084555;28;1444;-17
2023/06/15 11:23:55;;;;;;;;;;;;;;;28.39;40.71;100603.72;5077862;28;1091;-18
2023/06/15 11:26:22;;;;;;;;;;;;;;;28.28;40.25;100605.03;5079840;28;1906;-17
2023/06/15 11:28:48;;;;;;;;;;;;;;;28.15;41.01;100594.09;5085916;28;1121;-17
2023/06/15 11:31:15;;;;;;;;;;;;;;;28.12;40.50;100600.72;5073486;28;1150;-18
2023/06/15 11:33:41;;;;;;;;;;;;;;;28.09;40.76;100607.34;5085033;28;1023;-18
2023/06/15 11:36:07;;;;;;;;;;;;;;;27.99;40.68;100598.75;5094736;28;1029;-17
2023/06/15 11:38:33;;;;;;;;;;;;;;;28.20;40.73;100606.00;5095012;28;1074;-17
2023/06/15 11:41:02;;;;;;;;;;;;;;;28.10;40.80;100594.66;5091634;28;1013;-18
2023/06/15 11:43:31;;;;;;;;;;;;;;;28.48;40.14;100598.97;5091156;28;1391;-17
2023/06/15 11:45:57;;;;;;;;;;;;;;;28.59;39.05;100595.72;5079929;28;1969;-18
2023/06/15 11:48:24;;;;;;;;;;;;;;;28.74;38.73;100583.97;5081451;28;1308;-17
2023/06/15 11:50:49;;;;;;;;;;;;;;;28.64;38.85;100588.91;5071784;28;1211;-17
2023/06/15 11:53:16;;;;;;;;;;;;;;;28.75;38.74;100601.03;5092508;28;1078;-18
2023/06/15 11:55:45;;;;;;;;;;;;;;;28.91;38.39;100589.91;5089663;28;1052;-15
2023/06/15 11:58:11;;;;;;;;;;;;;;;28.99;37.94;100588.94;5089089;28;1241;-16
2023/06/15 12:00:36;;;;;;;;;;;;;;;28.93;38.09;100584.28;5080808;28;1020;-17
2023/06/15 12:03:09;;;;;;;;;;;;;;;28.59;38.46;100593.03;5088841;28;1186;-16
2023/06/15 12:05:34;;;;;;;;;;;;;;;29.19;37.52;100589.06;5068447;28;1902;-17
2023/06/15 12:08:00;;;;;;;;;;;;;;;29.05;37.93;100595.41;5085498;28;1161;-17
2023/06/15 12:10:26;;;;;;;;;;;;;;;28.79;38.71;100591.50;5091384;28;1083;-17
2023/06/15 12:12:51;;;;;;;;;;;;;;;28.36;39.65;100585.16;5080398;28;1190;-19
2023/06/15 12:15:17;;;;;;;;;;;;;;;28.92;37.97;100585.31;5081192;28;1190;-19
2023/06/15 12:17:42;;;;;;;;;;;;;;;28.06;39.54;100586.09;5096334;28;1150;-16
2023/06/15 12:20:13;;;;;;;;;;;;;;;27.02;43.72;100589.69;5092549;28;1070;-15
2023/06/15 12:22:42;;;;;;;;;;;;;;;27.88;41.39;100594.66;5084487;28;1087;-17
2023/06/15 12:25:08;;;;;;;;;;;;;;;28.81;38.82;100584.03;5077458;28;1277;-17
2023/06/15 12:27:39;;;;;;;;;;;;;;;28.89;39.93;100580.31;5089214;28;1991;-19
2023/06/15 12:30:09;;;;;;;;;;;;;;;28.93;38.70;100586.97;5083202;28;1327;-18
2023/06/15 12:32:35;;;;;;;;;;;;;;;29.02;38.70;100579.56;5092875;28;1204;-18
2023/06/15 12:35:01;;;;;;;;;;;;;;;28.82;39.52;100575.69;5080793;28;1175;-18
2023/06/15 12:37:28;;;;;;;;;;;;;;;28.89;39.62;100573.03;5081239;28;1007;-19
2023/06/15 12:39:53;;;;;;;;;;;;;;;28.90;38.34;100569.28;5090483;28;1091;-18
2023/06/15 12:42:19;;;;;;;;;;;;;;;28.53;38.87;100569.47;5072994;28;1043;-18
2023/06/15 12:44:44;;;;;;;;;;;;;;;28.30;39.46;100561.56;5085203;28;1059;-17
2023/06/15 12:47:10;;;;;;;;;;;;;;;28.28;39.47;100564.44;5092978;28;1976;-18